Aérodrome :
LOGIN :

S'inscrire | Disclaimer

   EN    FR    IT 

 










Légende :    VFR   VFR Marginal   IFR   IFR Intensif   IFR Très Intensif
Visi : 
Plafond : 
>= 8 km
>= 3000ft
5 à 8 km
1000 à 3000 ft
1500m à 5 km
500 à 1000 ft
800 à 1500m
200 à 500 ft
< 800m
< 200 ft
Symboles :   Orages  Brouillard  Fortes neiges  Fortes précipitations  Vent > 20 kt
SIGMETs :   Divers  Orages  Givrage  Turbulence  Onde Orograph.  Cendres Volcan.







- Altitude de l'aérodrome : 1260 ft
- Code IATA : LDE
- Voir les cartes d'approche


LFBT - Tarbes / Ossun

DERNIER METAR :
  • 152230Z AUTO 16005KT 9999 BKN082 OVC100 10/10 Q1017 TEMPO 4000 -RA BECMG 26012KT

METARs EXPIRÉS :
  • 152200Z AUTO VRB02KT 9999 BKN076 OVC088 10/10 Q1017 TEMPO 4000 -RA BECMG 26012KT
  • 152130Z AUTO 21004KT 9999 BKN078 OVC098 10/09 Q1016 TEMPO 4000 -RA
  • 152100Z AUTO 15004KT 9999 BKN100 OVC200 09/09 Q1016 TEMPO 4000 -RA BECMG 26012KT
  • 152030Z AUTO 20005KT 9999 BKN090 BKN110 BKN140 09/08 Q1016 TEMPO 4000 -RA BECMG 26012KT
  • 152000Z AUTO 19004KT CAVOK 09/08 Q1016 TEMPO 4000 -RA BECMG 26012KT

TAF TAF LFBT
Valide du 15 à 18h jusqu'au 16 à 18h UTC


151700Z 1518/1618 19005KT 9999 SCT050 BKN060
TEMPO 1521/1602 4000 -RA BKN040
BECMG 1521/1523 26012KT
TEMPO 1604/1616 2000 +RA BKN010 BKN025TCU
TEMPO 1607/1613 VRB02KT
Pas de NOTAMs connus pour ce terrain.



MET'MAP, la Météo Aéronautique d'un coup d'oeil ! - Copyright ORBIFLY Décembre 2007 - Disclaimer

ORBIFLY MET'MAP TEAM :

Programmation & Développement : Alexandra Zaïnal
Conception & Développement : Baudouin d'Aumeries
Co-Programmation & Développement : Marc-Olivier Méhu
Soutien technique & logistique : Manuel Goepfert

Contact : metmap@orbifly.com




SOURCES & CREDITS :

   NOAA